Time;durP1;ratioP1;P1;durP2;ratioP2;P2;SDS_P1;SDS_P2;PMS_P1;PMS_P2;Temp;Humidity;BMP_temperature;BMP_pressure;BME280_temperature;BME280_humidity;BME280_pressure;Samples;Min_cycle;Max_cycle;Signal;HPM_P1;HPM_P2
2021/01/13 00:02:20;;;;;;;7.43;4.40;;;;;;;;;;4882195;29;20056;-22
2021/01/13 00:04:45;;;;;;;7.57;4.30;;;;;;;;;;4882318;29;20040;-23
2021/01/13 00:07:12;;;;;;;9.50;5.43;;;;;;;;;;4898946;29;20131;-23
2021/01/13 00:09:37;;;;;;;9.43;4.80;;;;;;;;;;4882213;29;20032;-24
2021/01/13 00:12:03;;;;;;;10.23;5.78;;;;;;;;;;4899114;29;20116;-22
2021/01/13 00:14:28;;;;;;;10.93;5.45;;;;;;;;;;4897651;29;20111;-23
2021/01/13 00:16:53;;;;;;;12.80;6.55;;;;;;;;;;4898823;29;20024;-24
2021/01/13 00:19:19;;;;;;;13.18;7.50;;;;;;;;;;4898561;29;20365;-21
2021/01/13 00:21:51;;;;;;;13.02;5.45;;;;;;;;;;4898883;29;20037;-22
2021/01/13 00:24:17;;;;;;;10.73;5.32;;;;;;;;;;4898753;29;20035;-21
2021/01/13 00:26:43;;;;;;;10.35;4.47;;;;;;;;;;4881856;29;20400;-22
2021/01/13 00:29:10;;;;;;;9.90;4.70;;;;;;;;;;4881597;29;20144;-22
2021/01/13 00:31:35;;;;;;;11.05;4.35;;;;;;;;;;4866046;29;20032;-21
2021/01/13 00:34:00;;;;;;;7.35;4.20;;;;;;;;;;4882170;29;20029;-21
2021/01/13 00:36:27;;;;;;;8.38;4.68;;;;;;;;;;4898835;29;20040;-22
2021/01/13 00:38:53;;;;;;;6.45;4.13;;;;;;;;;;4882684;29;20482;-24
2021/01/13 00:41:18;;;;;;;4.80;3.38;;;;;;;;;;4898687;29;20032;-24
2021/01/13 00:43:44;;;;;;;8.07;4.28;;;;;;;;;;4898085;29;20033;-23
2021/01/13 00:46:10;;;;;;;7.13;4.18;;;;;;;;;;4898347;29;20039;-23
2021/01/13 00:48:35;;;;;;;9.95;4.75;;;;;;;;;;4898232;29;20503;-22
2021/01/13 00:51:01;;;;;;;8.70;4.68;;;;;;;;;;4898152;29;20060;-22
2021/01/13 00:53:26;;;;;;;13.65;7.78;;;;;;;;;;4896841;29;20041;-24
2021/01/13 00:55:51;;;;;;;11.80;5.13;;;;;;;;;;4898206;29;20036;-23
2021/01/13 00:58:17;;;;;;;7.25;4.88;;;;;;;;;;4881076;29;20431;-23
2021/01/13 01:00:42;;;;;;;10.43;5.88;;;;;;;;;;4898160;29;20052;-23
2021/01/13 01:03:08;;;;;;;5.68;3.83;;;;;;;;;;4881180;29;20043;-23
2021/01/13 01:05:33;;;;;;;11.57;5.43;;;;;;;;;;4898188;29;20033;-22
2021/01/13 01:07:58;;;;;;;11.35;5.38;;;;;;;;;;4898049;29;20032;-23
2021/01/13 01:10:28;;;;;;;8.75;4.53;;;;;;;;;;4896612;29;20467;-22
2021/01/13 01:12:54;;;;;;;6.80;4.32;;;;;;;;;;4897682;29;20029;-22
2021/01/13 01:15:19;;;;;;;8.10;4.43;;;;;;;;;;4896655;29;20124;-23
2021/01/13 01:17:44;;;;;;;10.35;4.28;;;;;;;;;;4880868;29;20419;-23
2021/01/13 01:20:10;;;;;;;10.70;4.70;;;;;;;;;;4897690;29;20036;-23
2021/01/13 01:22:48;;;;;;;7.90;4.25;;;;;;;;;;4897647;29;20096;-23
2021/01/13 01:25:13;;;;;;;10.35;5.47;;;;;;;;;;4897651;29;20029;-30
2021/01/13 01:27:38;;;;;;;4.47;2.92;;;;;;;;;;4880704;29;20649;-22
2021/01/13 01:30:04;;;;;;;7.28;3.75;;;;;;;;;;4896939;29;20112;-23
2021/01/13 01:32:29;;;;;;;9.20;4.15;;;;;;;;;;4897798;29;20428;-23
2021/01/13 01:34:55;;;;;;;7.45;4.13;;;;;;;;;;4897695;29;20036;-23
2021/01/13 01:37:20;;;;;;;12.63;4.75;;;;;;;;;;4897769;29;20036;-23
2021/01/13 01:39:45;;;;;;;11.10;4.75;;;;;;;;;;4897558;29;20051;-23
2021/01/13 01:42:16;;;;;;;8.30;4.40;;;;;;;;;;4895974;29;20033;-23
2021/01/13 01:44:41;;;;;;;7.50;4.15;;;;;;;;;;4897397;29;20065;-23
2021/01/13 01:47:08;;;;;;;6.03;4.15;;;;;;;;;;4896885;29;20044;-22
2021/01/13 01:49:34;;;;;;;9.23;4.57;;;;;;;;;;4880085;29;20066;-22
2021/01/13 01:52:03;;;;;;;7.38;4.70;;;;;;;;;;4896004;29;20472;-23
2021/01/13 01:54:33;;;;;;;9.75;4.72;;;;;;;;;;4880260;29;20408;-22
2021/01/13 01:57:02;;;;;;;11.25;4.57;;;;;;;;;;4879570;29;20069;-21
2021/01/13 01:59:36;;;;;;;8.77;4.38;;;;;;;;;;4880496;29;20032;-22
2021/01/13 02:02:03;;;;;;;8.68;4.40;;;;;;;;;;4897306;29;20029;-22
2021/01/13 02:04:32;;;;;;;6.82;4.38;;;;;;;;;;4880437;29;20438;-21
2021/01/13 02:06:57;;;;;;;8.75;4.55;;;;;;;;;;4896711;29;20486;-20
2021/01/13 02:09:22;;;;;;;8.85;4.47;;;;;;;;;;4895441;29;20044;-22
2021/01/13 02:11:51;;;;;;;8.93;5.38;;;;;;;;;;4879864;29;20032;-21
2021/01/13 02:14:17;;;;;;;5.40;4.03;;;;;;;;;;4897095;29;20029;-21
2021/01/13 02:16:47;;;;;;;11.35;4.88;;;;;;;;;;4896709;29;20593;-22
2021/01/13 02:19:21;;;;;;;4.30;3.28;;;;;;;;;;4896818;29;20037;-23
2021/01/13 02:21:47;;;;;;;8.30;4.38;;;;;;;;;;4897006;29;20033;-22
2021/01/13 02:24:18;;;;;;;5.80;3.58;;;;;;;;;;4880137;29;20048;-23
2021/01/13 02:27:02;;;;;;;6.88;3.38;;;;;;;;;;4880438;29;20040;-24
2021/01/13 02:29:34;;;;;;;8.35;4.30;;;;;;;;;;4896846;29;20093;-23
2021/01/13 02:32:02;;;;;;;9.90;3.63;;;;;;;;;;4896977;29;20449;-23
2021/01/13 02:34:39;;;;;;;9.48;4.22;;;;;;;;;;4895710;29;20433;-23
2021/01/13 02:37:17;;;;;;;8.00;4.80;;;;;;;;;;4896769;29;20029;-23
2021/01/13 02:39:43;;;;;;;8.60;5.35;;;;;;;;;;4896934;29;20118;-23
2021/01/13 02:42:12;;;;;;;13.60;5.28;;;;;;;;;;4898304;29;20111;-23
2021/01/13 02:44:43;;;;;;;8.30;4.57;;;;;;;;;;4900462;29;20040;-22
2021/01/13 02:47:15;;;;;;;11.20;4.40;;;;;;;;;;4900331;29;20111;-23
2021/01/13 02:49:48;;;;;;;8.13;4.30;;;;;;;;;;4900753;29;20040;-22
2021/01/13 02:52:18;;;;;;;7.33;3.57;;;;;;;;;;4900272;29;20407;-23
2021/01/13 02:54:44;;;;;;;6.28;3.03;;;;;;;;;;4883459;29;20060;-23
2021/01/13 02:57:16;;;;;;;5.10;3.35;;;;;;;;;;4883426;29;20547;-24
2021/01/13 02:59:43;;;;;;;9.32;4.72;;;;;;;;;;4900186;29;20514;-23
2021/01/13 03:02:10;;;;;;;7.22;3.88;;;;;;;;;;4900410;29;20044;-23
2021/01/13 03:04:36;;;;;;;9.27;4.82;;;;;;;;;;4900186;29;20033;-24
2021/01/13 03:07:05;;;;;;;14.30;6.30;;;;;;;;;;4898600;29;20045;-23
2021/01/13 03:09:32;;;;;;;6.50;3.67;;;;;;;;;;4883563;29;20084;-24
2021/01/13 03:11:57;;;;;;;7.57;3.70;;;;;;;;;;4899998;29;20037;-23
2021/01/13 03:14:25;;;;;;;8.63;4.65;;;;;;;;;;4883285;29;20085;-23
2021/01/13 03:17:08;;;;;;;10.55;4.63;;;;;;;;;;4883192;29;20036;-24
2021/01/13 03:19:42;;;;;;;7.93;4.38;;;;;;;;;;4899901;29;20502;-23
2021/01/13 03:22:15;;;;;;;6.68;4.57;;;;;;;;;;4900047;29;20502;-23
2021/01/13 03:25:06;;;;;;;7.00;3.70;;;;;;;;;;4899318;29;20060;-22
2021/01/13 03:27:33;;;;;;;11.35;4.63;;;;;;;;;;4896707;29;20637;-25
2021/01/13 03:29:59;;;;;;;11.32;5.68;;;;;;;;;;4895116;29;20532;-25
2021/01/13 03:32:37;;;;;;;7.97;4.18;;;;;;;;;;4880993;29;20041;-24
2021/01/13 03:35:10;;;;;;;9.55;5.65;;;;;;;;;;4880353;29;20183;-25
2021/01/13 03:37:54;;;;;;;7.97;4.43;;;;;;;;;;4880953;29;20063;-22
2021/01/13 03:40:20;;;;;;;5.25;3.70;;;;;;;;;;4880744;29;20072;-22
2021/01/13 03:42:49;;;;;;;6.72;3.60;;;;;;;;;;4879491;29;20029;-22
2021/01/13 03:45:22;;;;;;;6.43;3.25;;;;;;;;;;4879462;29;20044;-20
2021/01/13 03:47:57;;;;;;;10.40;4.80;;;;;;;;;;4895050;29;20041;-21
2021/01/13 03:50:23;;;;;;;11.35;4.75;;;;;;;;;;4880598;29;20044;-20
2021/01/13 03:53:04;;;;;;;10.77;5.65;;;;;;;;;;4880291;29;20029;-21
2021/01/13 03:55:30;;;;;;;7.70;4.20;;;;;;;;;;4880528;29;20041;-25
2021/01/13 03:57:56;;;;;;;8.60;4.20;;;;;;;;;;4880647;29;20052;-22
2021/01/13 04:00:21;;;;;;;5.78;3.65;;;;;;;;;;4880446;29;20060;-23
2021/01/13 04:03:05;;;;;;;6.45;3.50;;;;;;;;;;4879167;29;20033;-23
2021/01/13 04:05:33;;;;;;;6.93;3.25;;;;;;;;;;4879174;29;20037;-22
2021/01/13 04:07:59;;;;;;;11.65;3.45;;;;;;;;;;4880229;29;20161;-23
2021/01/13 04:10:25;;;;;;;10.80;4.03;;;;;;;;;;4880285;29;20036;-24
2021/01/13 04:12:50;;;;;;;8.80;4.45;;;;;;;;;;4880289;29;20025;-23
2021/01/13 04:15:18;;;;;;;8.07;4.82;;;;;;;;;;4880435;29;20398;-23
2021/01/13 04:17:45;;;;;;;8.45;4.57;;;;;;;;;;4880103;29;20040;-23
2021/01/13 04:20:11;;;;;;;8.98;5.35;;;;;;;;;;4880113;29;20029;-23
2021/01/13 04:22:36;;;;;;;9.88;5.75;;;;;;;;;;4880108;29;20504;-23
2021/01/13 04:25:03;;;;;;;10.35;6.30;;;;;;;;;;4894298;29;20562;-23
2021/01/13 04:27:28;;;;;;;12.30;5.47;;;;;;;;;;4878829;29;20120;-23
2021/01/13 04:29:54;;;;;;;10.13;5.40;;;;;;;;;;4878670;29;20073;-23
2021/01/13 04:32:19;;;;;;;8.77;4.97;;;;;;;;;;4879774;29;20112;-23
2021/01/13 04:34:44;;;;;;;8.88;4.43;;;;;;;;;;4880004;29;20025;-22
2021/01/13 04:37:11;;;;;;;8.77;4.32;;;;;;;;;;4878625;29;20072;-21
2021/01/13 04:39:36;;;;;;;7.57;3.75;;;;;;;;;;4879747;29;20262;-21
2021/01/13 04:42:02;;;;;;;7.93;3.92;;;;;;;;;;4893963;29;20163;-23
2021/01/13 04:44:30;;;;;;;8.65;4.70;;;;;;;;;;4878464;29;20403;-22
2021/01/13 04:47:02;;;;;;;8.50;4.78;;;;;;;;;;4878441;29;20060;-22
2021/01/13 04:49:27;;;;;;;9.32;4.80;;;;;;;;;;4878383;29;20635;-21
2021/01/13 04:51:55;;;;;;;6.80;3.78;;;;;;;;;;4879625;29;20069;-21
2021/01/13 04:54:21;;;;;;;10.20;4.70;;;;;;;;;;4879413;29;20021;-22
2021/01/13 04:57:05;;;;;;;12.20;4.97;;;;;;;;;;4879520;29;20035;-21
2021/01/13 04:59:30;;;;;;;8.32;5.28;;;;;;;;;;4879460;29;20044;-24
2021/01/13 05:01:58;;;;;;;8.13;4.43;;;;;;;;;;4879673;29;20040;-23
2021/01/13 05:04:27;;;;;;;10.18;4.13;;;;;;;;;;4893003;29;20080;-23
2021/01/13 05:06:55;;;;;;;6.93;3.70;;;;;;;;;;4879213;29;20068;-24
2021/01/13 05:09:21;;;;;;;10.20;4.53;;;;;;;;;;4879164;29;20048;-23
2021/01/13 05:11:47;;;;;;;8.50;4.43;;;;;;;;;;4893512;29;20041;-23
2021/01/13 05:14:13;;;;;;;10.82;4.55;;;;;;;;;;4879431;29;20052;-23
2021/01/13 05:16:44;;;;;;;10.75;4.97;;;;;;;;;;4879166;29;20469;-24
2021/01/13 05:19:18;;;;;;;9.95;5.13;;;;;;;;;;4877888;29;20133;-23
2021/01/13 05:21:43;;;;;;;;;;;;;;;;;;4878128;29;20503;-23
2021/01/13 05:24:08;;;;;;;9.40;5.43;;;;;;;;;;4879000;29;19912;-23
2021/01/13 05:26:41;;;;;;;7.63;4.25;;;;;;;;;;4878994;29;20052;-23
2021/01/13 05:29:23;;;;;;;10.23;3.65;;;;;;;;;;4888220;29;20055;-23
2021/01/13 05:31:49;;;;;;;8.13;4.60;;;;;;;;;;4897561;29;20028;-23
2021/01/13 05:34:17;;;;;;;7.32;4.80;;;;;;;;;;4897475;29;20051;-24
2021/01/13 05:36:44;;;;;;;11.38;4.53;;;;;;;;;;4897482;29;20028;-22
2021/01/13 05:39:11;;;;;;;9.10;4.45;;;;;;;;;;4897417;29;20039;-23
2021/01/13 05:41:40;;;;;;;6.97;4.53;;;;;;;;;;4897445;29;20427;-23
2021/01/13 05:44:06;;;;;;;10.05;4.18;;;;;;;;;;4897215;29;20052;-23
2021/01/13 05:46:42;;;;;;;7.18;3.25;;;;;;;;;;4880703;29;20036;-22
2021/01/13 05:49:08;;;;;;;7.95;4.53;;;;;;;;;;4897171;29;20071;-23
2021/01/13 05:51:34;;;;;;;6.32;3.42;;;;;;;;;;4897256;29;20045;-24
2021/01/13 05:53:59;;;;;;;6.95;4.25;;;;;;;;;;4897557;29;20044;-23
2021/01/13 05:56:25;;;;;;;7.72;4.47;;;;;;;;;;4897131;29;20107;-24
2021/01/13 05:59:03;;;;;;;23.17;8.98;;;;;;;;;;4897251;29;20469;-22
2021/01/13 06:01:29;;;;;;;13.23;5.53;;;;;;;;;;4897338;29;20426;-21
2021/01/13 06:03:55;;;;;;;10.55;5.05;;;;;;;;;;4897258;29;20038;-24
2021/01/13 06:06:25;;;;;;;8.10;4.63;;;;;;;;;;4897056;29;20524;-23
2021/01/13 06:08:51;;;;;;;11.32;5.40;;;;;;;;;;4880156;29;20044;-21
2021/01/13 06:11:16;;;;;;;10.00;5.68;;;;;;;;;;4897036;29;20459;-23
2021/01/13 06:13:42;;;;;;;10.02;4.88;;;;;;;;;;4880453;29;20036;-23
2021/01/13 06:16:09;;;;;;;10.25;5.28;;;;;;;;;;4881649;29;20116;-23
2021/01/13 06:18:35;;;;;;;14.75;7.25;;;;;;;;;;4901242;29;20036;-23
2021/01/13 06:21:09;;;;;;;11.27;6.03;;;;;;;;;;4900822;29;20099;-23
2021/01/13 06:23:41;;;;;;;7.95;4.18;;;;;;;;;;4900958;29;20028;-22
2021/01/13 06:26:06;;;;;;;10.93;5.13;;;;;;;;;;4900730;29;20116;-23
2021/01/13 06:28:50;;;;;;;8.70;5.32;;;;;;;;;;4900679;29;20140;-21
2021/01/13 06:31:20;;;;;;;16.85;7.40;;;;;;;;;;4883970;29;20039;-22
2021/01/13 06:33:46;;;;;;;14.85;6.45;;;;;;;;;;4900688;29;20044;-23
2021/01/13 06:36:19;;;;;;;13.80;6.00;;;;;;;;;;4900752;29;20032;-23
2021/01/13 06:38:55;;;;;;;9.73;4.25;;;;;;;;;;4883871;29;20024;-22
2021/01/13 06:41:21;;;;;;;11.20;5.82;;;;;;;;;;4900491;29;20064;-23
2021/01/13 06:43:59;;;;;;;11.50;6.07;;;;;;;;;;4883909;29;20091;-21
2021/01/13 06:46:25;;;;;;;11.10;5.75;;;;;;;;;;4900482;29;20040;-23
2021/01/13 06:48:52;;;;;;;32.13;12.63;;;;;;;;;;4900470;29;20416;-23
2021/01/13 06:51:18;;;;;;;13.20;6.95;;;;;;;;;;4900337;29;20027;-22
2021/01/13 06:53:47;;;;;;;10.23;5.97;;;;;;;;;;4900607;29;20391;-23
2021/01/13 06:56:16;;;;;;;9.02;5.10;;;;;;;;;;4900237;29;20043;-20
2021/01/13 06:59:00;;;;;;;10.57;6.00;;;;;;;;;;4900345;29;20040;-23
2021/01/13 07:01:25;;;;;;;13.15;4.97;;;;;;;;;;4900225;29;20510;-22
2021/01/13 07:03:58;;;;;;;9.30;5.63;;;;;;;;;;4900292;29;20123;-21
2021/01/13 07:06:24;;;;;;;9.65;4.72;;;;;;;;;;4900110;29;20057;-22
2021/01/13 07:08:50;;;;;;;8.38;5.07;;;;;;;;;;4883066;29;20519;-22
2021/01/13 07:11:15;;;;;;;65.57;17.23;;;;;;;;;;4899986;29;20032;-23
2021/01/13 07:13:47;;;;;;;10.60;5.32;;;;;;;;;;4900311;29;20040;-23
2021/01/13 07:16:14;;;;;;;6.95;4.03;;;;;;;;;;4883039;29;20029;-21
2021/01/13 07:18:39;;;;;;;8.45;4.78;;;;;;;;;;4899916;29;20476;-22
2021/01/13 07:21:08;;;;;;;9.48;4.10;;;;;;;;;;4899768;29;20080;-22
2021/01/13 07:23:35;;;;;;;5.40;3.88;;;;;;;;;;4882902;29;20032;-22
2021/01/13 07:26:00;;;;;;;7.10;4.22;;;;;;;;;;4899833;29;20051;-24
2021/01/13 07:28:26;;;;;;;9.60;4.40;;;;;;;;;;4898838;29;20492;-23
2021/01/13 07:30:52;;;;;;;11.05;6.13;;;;;;;;;;4899769;29;20111;-23
2021/01/13 07:33:18;;;;;;;11.90;7.10;;;;;;;;;;4899746;29;20036;-23
2021/01/13 07:35:45;;;;;;;8.75;5.72;;;;;;;;;;4899682;29;20025;-22
2021/01/13 07:38:20;;;;;;;9.85;5.53;;;;;;;;;;4899538;29;20060;-23
2021/01/13 07:41:05;;;;;;;15.25;7.25;;;;;;;;;;4882712;29;20024;-21
2021/01/13 07:43:49;;;;;;;13.73;6.07;;;;;;;;;;4899069;29;20033;-21
2021/01/13 07:46:28;;;;;;;9.40;4.75;;;;;;;;;;4898899;29;20028;-21
2021/01/13 07:48:53;;;;;;;8.70;4.82;;;;;;;;;;4882665;29;20044;-23
2021/01/13 07:51:19;;;;;;;6.95;4.93;;;;;;;;;;4899445;29;20064;-24
2021/01/13 07:53:49;;;;;;;7.50;4.55;;;;;;;;;;4899354;29;20044;-23
2021/01/13 07:56:14;;;;;;;7.13;4.57;;;;;;;;;;4899287;29;20033;-23
2021/01/13 07:58:57;;;;;;;7.85;4.50;;;;;;;;;;4899192;29;20464;-23
2021/01/13 08:01:25;;;;;;;9.02;5.47;;;;;;;;;;4899148;29;20040;-23
2021/01/13 08:04:10;;;;;;;8.20;4.10;;;;;;;;;;4899145;29;20044;-24
2021/01/13 08:06:44;;;;;;;7.80;4.70;;;;;;;;;;4899103;29;20075;-23
2021/01/13 08:09:14;;;;;;;6.90;3.38;;;;;;;;;;4898903;29;20135;-23
2021/01/13 08:11:58;;;;;;;7.78;4.60;;;;;;;;;;4898914;29;20029;-23
2021/01/13 08:14:33;;;;;;;6.50;3.95;;;;;;;;;;4882076;29;20111;-23
2021/01/13 08:17:23;;;;;;;7.55;5.03;;;;;;;;;;4899213;29;20036;-23
2021/01/13 08:20:10;;;;;;;8.90;4.88;;;;;;;;;;4893902;29;20485;-23
2021/01/13 08:22:35;;;;;;;9.40;4.65;;;;;;;;;;4881966;29;20057;-23
2021/01/13 08:25:11;;;;;;;7.65;4.20;;;;;;;;;;4899002;29;20032;-23
2021/01/13 08:27:37;;;;;;;6.50;4.38;;;;;;;;;;4898812;29;20048;-24
2021/01/13 08:30:03;;;;;;;9.57;6.28;;;;;;;;;;4899048;29;20064;-22
2021/01/13 08:32:40;;;;;;;5.63;4.15;;;;;;;;;;4898628;29;20041;-22
2021/01/13 08:35:05;;;;;;;8.38;4.55;;;;;;;;;;4898443;29;20048;-22
2021/01/13 08:37:32;;;;;;;9.35;4.70;;;;;;;;;;4898789;29;20028;-23
2021/01/13 08:39:58;;;;;;;8.80;5.68;;;;;;;;;;4897394;29;20072;-22
2021/01/13 08:42:25;;;;;;;8.70;5.13;;;;;;;;;;4898331;29;20067;-21
2021/01/13 08:44:52;;;;;;;9.13;5.20;;;;;;;;;;4881709;29;20032;-23
2021/01/13 08:47:18;;;;;;;8.00;5.15;;;;;;;;;;4896803;29;20444;-24
2021/01/13 08:49:43;;;;;;;6.78;4.50;;;;;;;;;;4898287;29;20037;-24
2021/01/13 08:52:10;;;;;;;8.63;3.38;;;;;;;;;;4898190;29;20116;-23
2021/01/13 08:54:37;;;;;;;8.88;4.57;;;;;;;;;;4865973;29;20087;-23
2021/01/13 08:57:03;;;;;;;9.90;4.78;;;;;;;;;;4898384;29;20432;-23
2021/01/13 08:59:46;;;;;;;5.95;4.25;;;;;;;;;;4898414;29;20036;-24
2021/01/13 09:02:12;;;;;;;9.10;4.85;;;;;;;;;;4880942;29;20115;-23
2021/01/13 09:04:57;;;;;;;10.93;5.60;;;;;;;;;;4556142;29;10000590;-23
2021/01/13 09:07:24;;;;;;;6.97;4.40;;;;;;;;;;4877379;29;20096;-24
2021/01/13 09:09:54;;;;;;;7.60;5.05;;;;;;;;;;4894495;29;20036;-24
2021/01/13 09:12:27;;;;;;;7.00;4.93;;;;;;;;;;4894744;29;20033;-24
2021/01/13 09:15:10;;;;;;;7.72;5.22;;;;;;;;;;4894704;29;20040;-24
2021/01/13 09:17:39;;;;;;;7.85;4.30;;;;;;;;;;4877779;29;20092;-23
2021/01/13 09:20:05;;;;;;;7.03;3.53;;;;;;;;;;4848012;29;20449;-23
2021/01/13 09:22:43;;;;;;;7.10;4.43;;;;;;;;;;4875433;29;20048;-22
2021/01/13 09:25:16;;;;;;;4.90;3.63;;;;;;;;;;4875323;29;20067;-22
2021/01/13 09:27:46;;;;;;;6.95;3.67;;;;;;;;;;4875225;29;20145;-23
2021/01/13 09:30:21;;;;;;;6.85;4.07;;;;;;;;;;4873719;29;20060;-22
2021/01/13 09:32:50;;;;;;;5.82;3.03;;;;;;;;;;4888486;29;20037;-22
2021/01/13 09:35:24;;;;;;;7.82;4.60;;;;;;;;;;4892487;29;20036;-23
2021/01/13 09:37:53;;;;;;;6.75;2.70;;;;;;;;;;4875045;29;20049;-23
2021/01/13 09:40:21;;;;;;;5.50;2.97;;;;;;;;;;4874814;29;20025;-22
2021/01/13 09:42:53;;;;;;;7.95;3.85;;;;;;;;;;4888240;29;20089;-22
2021/01/13 09:45:18;;;;;;;6.80;4.32;;;;;;;;;;4876717;29;20047;-22
2021/01/13 09:47:44;;;;;;;4.43;2.72;;;;;;;;;;4894068;29;20044;-23
2021/01/13 09:50:11;;;;;;;6.65;3.05;;;;;;;;;;4893416;29;20384;-22
2021/01/13 09:52:40;;;;;;;6.47;3.30;;;;;;;;;;4893297;29;20033;-24
2021/01/13 09:55:08;;;;;;;5.07;3.10;;;;;;;;;;4893527;29;20039;-22
2021/01/13 09:57:34;;;;;;;4.28;3.10;;;;;;;;;;4893213;29;20055;-23
2021/01/13 10:00:10;;;;;;;5.75;3.15;;;;;;;;;;4893803;29;20504;-23
2021/01/13 10:02:40;;;;;;;5.35;3.65;;;;;;;;;;4876823;29;20051;-23
2021/01/13 10:05:06;;;;;;;6.07;3.22;;;;;;;;;;4893373;29;20032;-22
2021/01/13 10:07:32;;;;;;;4.47;2.83;;;;;;;;;;4893702;29;20148;-21
2021/01/13 10:09:59;;;;;;;4.78;3.13;;;;;;;;;;4893272;29;20032;-21
2021/01/13 10:12:45;;;;;;;6.70;3.58;;;;;;;;;;4893593;29;20044;-21
2021/01/13 10:15:12;;;;;;;6.60;3.72;;;;;;;;;;4893311;29;20085;-22
2021/01/13 10:17:38;;;;;;;4.25;2.60;;;;;;;;;;4893470;29;20044;-21
2021/01/13 10:20:33;;;;;;;5.03;3.15;;;;;;;;;;4893825;29;20036;-21
2021/01/13 10:23:00;;;;;;;7.43;4.10;;;;;;;;;;4885116;29;20040;-21
2021/01/13 10:25:29;;;;;;;6.50;4.15;;;;;;;;;;4894131;29;20044;-20
2021/01/13 10:27:55;;;;;;;8.10;3.70;;;;;;;;;;4876190;29;20076;-21
2021/01/13 10:30:20;;;;;;;4.88;3.30;;;;;;;;;;4893693;29;20435;-20
2021/01/13 10:32:50;;;;;;;6.75;3.58;;;;;;;;;;4893656;29;20048;-21
2021/01/13 10:35:17;;;;;;;4.95;2.85;;;;;;;;;;4893491;29;20044;-21
2021/01/13 10:37:56;;;;;;;4.53;3.13;;;;;;;;;;4893873;29;20040;-22
2021/01/13 10:40:22;;;;;;;6.00;3.92;;;;;;;;;;4893247;29;20123;-21
2021/01/13 10:42:49;;;;;;;4.82;2.65;;;;;;;;;;4893435;29;20041;-22
2021/01/13 10:45:15;;;;;;;4.82;3.15;;;;;;;;;;4893412;29;20037;-21
2021/01/13 10:48:01;;;;;;;6.18;3.60;;;;;;;;;;4876452;29;20100;-21
2021/01/13 10:50:29;;;;;;;5.70;2.92;;;;;;;;;;4876463;29;20108;-21
2021/01/13 10:52:56;;;;;;;4.47;2.88;;;;;;;;;;4893350;29;20066;-20
2021/01/13 10:55:22;;;;;;;5.07;3.42;;;;;;;;;;4893339;29;20361;-21
2021/01/13 10:57:49;;;;;;;5.15;3.47;;;;;;;;;;4892774;29;20173;-21
2021/01/13 11:00:16;;;;;;;4.88;3.28;;;;;;;;;;4893237;29;20036;-21
2021/01/13 11:02:49;;;;;;;4.72;2.83;;;;;;;;;;4892147;29;20043;-20
2021/01/13 11:05:15;;;;;;;3.63;2.72;;;;;;;;;;4896300;29;20480;-20
2021/01/13 11:07:43;;;;;;;4.63;3.05;;;;;;;;;;4879789;29;20036;-19
2021/01/13 11:10:09;;;;;;;5.85;2.90;;;;;;;;;;4896244;29;20020;-19
2021/01/13 11:12:35;;;;;;;6.63;3.13;;;;;;;;;;4896151;29;20066;-20
2021/01/13 11:15:03;;;;;;;5.47;3.03;;;;;;;;;;4879454;29;20036;-20
2021/01/13 11:17:30;;;;;;;3.60;2.13;;;;;;;;;;4895875;29;20056;-19
2021/01/13 11:19:56;;;;;;;4.28;2.25;;;;;;;;;;4896504;29;20384;-19
2021/01/13 11:22:44;;;;;;;4.05;3.00;;;;;;;;;;4895944;29;20025;-18
2021/01/13 11:25:28;;;;;;;3.65;2.60;;;;;;;;;;4896256;29;20040;-20
2021/01/13 11:27:58;;;;;;;3.42;2.50;;;;;;;;;;4895349;29;20128;-20
2021/01/13 11:30:23;;;;;;;3.78;2.50;;;;;;;;;;4863277;29;20040;-21
2021/01/13 11:32:53;;;;;;;2.83;1.90;;;;;;;;;;4896504;29;20047;-20
2021/01/13 11:35:44;;;;;;;3.03;2.20;;;;;;;;;;4895841;29;20147;-20
2021/01/13 11:38:28;;;;;;;4.45;2.28;;;;;;;;;;4878101;29;20076;-19
2021/01/13 11:41:02;;;;;;;3.55;2.17;;;;;;;;;;4895413;29;20480;-20
2021/01/13 11:43:51;;;;;;;3.67;2.65;;;;;;;;;;4879097;29;20028;-19
2021/01/13 11:46:17;;;;;;;4.53;2.72;;;;;;;;;;4872458;29;20080;-20
2021/01/13 11:48:52;;;;;;;3.42;2.30;;;;;;;;;;4879114;29;20040;-20
2021/01/13 11:51:18;;;;;;;3.45;2.50;;;;;;;;;;4895409;29;20031;-20
2021/01/13 11:53:47;;;;;;;3.22;2.42;;;;;;;;;;4878902;29;20032;-20
2021/01/13 11:56:13;;;;;;;4.72;2.72;;;;;;;;;;4895503;29;20084;-21
2021/01/13 11:58:47;;;;;;;3.83;2.85;;;;;;;;;;4879021;29;20044;-21
2021/01/13 12:01:13;;;;;;;3.72;2.60;;;;;;;;;;4878154;29;20067;-21
2021/01/13 12:03:38;;;;;;;4.40;2.20;;;;;;;;;;4895117;29;20076;-19
2021/01/13 12:06:07;;;;;;;4.47;2.55;;;;;;;;;;4895841;29;20040;-21
2021/01/13 12:08:33;;;;;;;5.40;2.55;;;;;;;;;;4893838;29;20040;-21
2021/01/13 12:10:58;;;;;;;3.53;2.22;;;;;;;;;;4895471;29;20352;-21
2021/01/13 12:13:26;;;;;;;4.10;2.10;;;;;;;;;;4894912;29;20439;-22
2021/01/13 12:16:02;;;;;;;4.55;2.80;;;;;;;;;;4895250;29;20032;-21
2021/01/13 12:18:28;;;;;;;5.70;2.50;;;;;;;;;;4894193;29;20085;-21
2021/01/13 12:20:56;;;;;;;4.68;2.92;;;;;;;;;;4878515;29;20542;-22
2021/01/13 12:23:29;;;;;;;4.05;2.58;;;;;;;;;;4895677;29;20090;-22
2021/01/13 12:25:55;;;;;;;;;;;;;;;;;;4895787;29;20040;-21
2021/01/13 12:28:24;;;;;;;3.75;2.58;;;;;;;;;;4894543;29;19938;-21
2021/01/13 12:30:53;;;;;;;3.65;1.98;;;;;;;;;;4895333;29;20040;-21
2021/01/13 12:33:19;;;;;;;3.33;1.77;;;;;;;;;;4895125;29;20032;-21
2021/01/13 12:35:45;;;;;;;5.40;2.50;;;;;;;;;;4894920;29;20084;-21
2021/01/13 12:38:10;;;;;;;2.47;1.85;;;;;;;;;;4894915;29;20127;-20
2021/01/13 12:40:35;;;;;;;2.72;1.95;;;;;;;;;;4894696;29;20028;-20
2021/01/13 12:43:11;;;;;;;3.05;2.00;;;;;;;;;;4894863;29;20029;-21
2021/01/13 12:45:37;;;;;;;4.13;2.30;;;;;;;;;;4893406;29;20132;-21
2021/01/13 12:48:02;;;;;;;3.17;2.05;;;;;;;;;;4894864;29;20123;-21
2021/01/13 12:50:28;;;;;;;2.95;1.42;;;;;;;;;;4877678;29;20036;-21
2021/01/13 12:52:53;;;;;;;2.60;1.80;;;;;;;;;;4894224;29;20048;-21
2021/01/13 12:55:19;;;;;;;2.05;1.63;;;;;;;;;;4894591;29;20749;-21
2021/01/13 12:57:44;;;;;;;2.50;1.50;;;;;;;;;;4894792;29;20119;-21
2021/01/13 13:00:10;;;;;;;2.13;1.40;;;;;;;;;;4877954;29;20751;-22
2021/01/13 13:02:36;;;;;;;2.65;1.33;;;;;;;;;;4894357;29;20107;-23
2021/01/13 13:05:01;;;;;;;1.85;1.55;;;;;;;;;;4877706;29;20404;-22
2021/01/13 13:07:26;;;;;;;2.20;1.65;;;;;;;;;;4877516;29;20427;-21
2021/01/13 13:09:52;;;;;;;2.85;1.63;;;;;;;;;;4894216;29;20033;-22
2021/01/13 13:12:17;;;;;;;1.80;1.20;;;;;;;;;;4894185;29;20055;-21
2021/01/13 13:14:43;;;;;;;4.82;1.48;;;;;;;;;;4894246;29;20037;-21
2021/01/13 13:17:08;;;;;;;1.65;1.02;;;;;;;;;;4894139;29;20056;-21
2021/01/13 13:19:34;;;;;;;1.92;1.40;;;;;;;;;;4894239;29;20064;-22
2021/01/13 13:21:59;;;;;;;1.80;1.00;;;;;;;;;;4894108;29;20854;-22
2021/01/13 13:24:27;;;;;;;2.38;1.25;;;;;;;;;;4894030;29;20051;-21
2021/01/13 13:26:55;;;;;;;2.13;1.15;;;;;;;;;;4893674;29;20048;-22
2021/01/13 13:29:20;;;;;;;2.47;0.95;;;;;;;;;;4893593;29;20049;-22
2021/01/13 13:31:48;;;;;;;1.35;0.80;;;;;;;;;;4894360;29;20555;-23
2021/01/13 13:34:13;;;;;;;2.88;1.10;;;;;;;;;;4877714;29;20518;-21
2021/01/13 13:36:38;;;;;;;2.35;1.35;;;;;;;;;;4877301;29;20048;-23
2021/01/13 13:39:04;;;;;;;2.25;1.38;;;;;;;;;;4894047;29;20104;-23
2021/01/13 13:41:29;;;;;;;3.08;1.60;;;;;;;;;;4893829;29;20037;-23
2021/01/13 13:43:55;;;;;;;2.10;1.05;;;;;;;;;;4894208;29;20033;-22
2021/01/13 13:46:20;;;;;;;2.63;1.23;;;;;;;;;;4894005;29;20381;-22
2021/01/13 13:48:46;;;;;;;2.47;1.10;;;;;;;;;;4877121;29;20047;-23
2021/01/13 13:51:12;;;;;;;2.35;1.55;;;;;;;;;;4895473;29;20035;-20
2021/01/13 13:53:38;;;;;;;1.50;1.13;;;;;;;;;;4893808;29;20062;-23
2021/01/13 13:56:04;;;;;;;2.15;1.23;;;;;;;;;;4876983;29;20087;-23
2021/01/13 13:58:30;;;;;;;1.73;1.00;;;;;;;;;;4894176;29;20447;-23
2021/01/13 14:00:56;;;;;;;1.63;1.45;;;;;;;;;;4893919;29;20040;-23
2021/01/13 14:03:21;;;;;;;1.40;0.98;;;;;;;;;;4893557;29;20088;-22
2021/01/13 14:05:47;;;;;;;1.80;1.00;;;;;;;;;;4893726;29;20547;-23
2021/01/13 14:08:12;;;;;;;1.10;0.90;;;;;;;;;;4893706;29;20040;-23
2021/01/13 14:10:37;;;;;;;2.08;1.17;;;;;;;;;;4893442;29;20029;-23
2021/01/13 14:13:03;;;;;;;1.00;0.88;;;;;;;;;;4893468;29;20040;-23
2021/01/13 14:15:28;;;;;;;2.03;0.95;;;;;;;;;;4893343;29;20040;-23
2021/01/13 14:17:54;;;;;;;2.97;1.10;;;;;;;;;;4876772;29;20056;-22
2021/01/13 14:20:19;;;;;;;2.40;1.20;;;;;;;;;;4893363;29;20031;-26
2021/01/13 14:22:44;;;;;;;2.20;1.15;;;;;;;;;;4893174;29;20127;-23
2021/01/13 14:25:10;;;;;;;2.00;1.55;;;;;;;;;;4893670;29;20464;-23
2021/01/13 14:27:36;;;;;;;3.10;1.80;;;;;;;;;;4893031;29;20043;-23
2021/01/13 14:30:03;;;;;;;3.42;1.83;;;;;;;;;;4893079;29;20523;-23
2021/01/13 14:32:28;;;;;;;2.85;2.13;;;;;;;;;;4893267;29;20492;-22
2021/01/13 14:34:54;;;;;;;5.00;2.40;;;;;;;;;;4860829;29;20063;-23
2021/01/13 14:37:19;;;;;;;2.85;2.03;;;;;;;;;;4895049;29;20032;-23
2021/01/13 14:39:45;;;;;;;5.75;2.72;;;;;;;;;;4879879;29;20032;-23
2021/01/13 14:42:11;;;;;;;2.30;1.67;;;;;;;;;;4897005;29;20032;-22
2021/01/13 14:44:37;;;;;;;6.68;2.30;;;;;;;;;;4897162;29;20045;-23
2021/01/13 14:47:06;;;;;;;4.07;2.10;;;;;;;;;;4896938;29;20040;-22
2021/01/13 14:49:32;;;;;;;2.03;1.75;;;;;;;;;;4896882;29;20037;-22
2021/01/13 14:51:57;;;;;;;6.85;3.55;;;;;;;;;;4895334;29;20027;-22